createdAt,value
2019-04-30T03:06:43.879Z,11.4
2019-04-30T03:07:33.966Z,11.4
2019-04-30T03:08:23.993Z,11.4
2019-04-30T03:09:13.507Z,11.4
2019-04-30T03:10:03.612Z,11.4
2019-04-30T03:11:44.243Z,11.4
2019-04-30T03:12:35.346Z,11.4
2019-04-30T03:13:24.085Z,11.3
2019-04-30T03:14:14.407Z,11.4
2019-04-30T03:15:04.484Z,11.4
2019-04-30T03:15:54.546Z,11.4
2019-04-30T03:16:44.636Z,11.3
2019-04-30T03:17:34.428Z,11.3
2019-04-30T03:18:24.830Z,11.3
2019-04-30T03:19:14.525Z,11.3
2019-04-30T03:20:05.219Z,11.3
2019-04-30T03:20:54.638Z,11.3
2019-04-30T03:21:44.994Z,11.3
2019-04-30T03:22:35.054Z,11.3
2019-04-30T03:23:24.830Z,11.3
2019-04-30T03:24:15.187Z,11.3
2019-04-30T03:25:05.249Z,11.3
2019-04-30T03:25:55.008Z,11.3
2019-04-30T03:26:45.341Z,11.3
2019-04-30T03:27:35.423Z,11.3
2019-04-30T03:28:25.470Z,11.3
2019-04-30T03:29:15.268Z,11.2
2019-04-30T03:30:05.344Z,11.2
2019-04-30T03:31:05.557Z,11.2
2019-04-30T03:31:51.760Z,11.2
2019-04-30T03:32:55.198Z,11.2
2019-04-30T03:34:33.373Z,11.2
2019-04-30T03:36:01.560Z,11.1
2019-04-30T03:36:45.873Z,11.1
2019-04-30T03:37:36.163Z,11.1
2019-04-30T03:38:26.224Z,11.1
2019-04-30T03:39:16.282Z,11.1
2019-04-30T03:40:06.376Z,11.1
2019-04-30T03:40:55.908Z,11.1
2019-04-30T03:41:46.485Z,11.1
2019-04-30T03:42:36.270Z,11.1
2019-04-30T03:43:26.323Z,11.1
2019-04-30T03:44:29.489Z,11.1
2019-04-30T03:45:56.522Z,11.1
2019-04-30T03:46:50.171Z,11.1
2019-04-30T03:47:40.262Z,11.1
2019-04-30T03:48:29.731Z,11
2019-04-30T03:49:17.043Z,11
2019-04-30T03:50:09.151Z,11
2019-04-30T03:51:02.075Z,11
2019-04-30T03:51:49.679Z,11
2019-04-30T03:52:39.947Z,11
2019-04-30T03:53:29.674Z,11
2019-04-30T03:54:19.704Z,11
2019-04-30T03:55:10.168Z,11
2019-04-30T03:55:57.564Z,11
2019-04-30T03:56:50.924Z,11
2019-04-30T03:57:40.322Z,11
2019-04-30T03:58:30.247Z,11
2019-04-30T03:59:20.370Z,11
2019-04-30T04:00:10.326Z,11
2019-04-30T04:01:00.568Z,11
2019-04-30T04:01:50.729Z,11
2019-04-30T04:02:40.948Z,11
2019-04-30T04:03:31.037Z,11
2019-04-30T04:04:21.041Z,11
2019-04-30T04:05:11.223Z,11
2019-04-30T04:06:00.529Z,11
2019-04-30T04:06:50.705Z,11
2019-04-30T04:07:40.662Z,11
2019-04-30T04:08:30.891Z,11
2019-04-30T04:09:23.317Z,11
2019-04-30T04:10:11.605Z,11
2019-04-30T04:11:01.600Z,11.1
2019-04-30T04:11:51.766Z,11.1
2019-04-30T04:12:41.060Z,11.1
2019-04-30T04:13:34.284Z,11.1
2019-04-30T04:14:20.973Z,11.1
2019-04-30T04:15:11.840Z,11.1
2019-04-30T04:16:01.286Z,11.1
2019-04-30T04:16:52.228Z,11.1
2019-04-30T04:17:41.342Z,11.1
2019-04-30T04:18:31.450Z,11.1
2019-04-30T04:19:20.947Z,11.1
2019-04-30T04:20:11.981Z,11.1
2019-04-30T04:21:21.044Z,11.1
2019-04-30T04:22:41.559Z,11.2
2019-04-30T04:23:34.104Z,11.2
2019-04-30T04:24:22.045Z,11.2
2019-04-30T04:25:14.519Z,11.2
2019-04-30T04:26:01.150Z,11.3
2019-04-30T04:26:51.849Z,11.3
2019-04-30T04:27:40.310Z,11.3
2019-04-30T04:28:31.518Z,11.3
2019-04-30T04:29:20.965Z,11.3
2019-04-30T04:30:12.213Z,11.3
2019-04-30T04:31:01.796Z,11.3
2019-04-30T04:31:51.848Z,11.4
2019-04-30T04:32:41.759Z,11.4
2019-04-30T04:33:31.237Z,11.4
2019-04-30T04:34:21.079Z,11.4
2019-04-30T04:35:14.066Z,11.5
2019-04-30T04:36:01.296Z,11.6
2019-04-30T04:36:51.990Z,11.6
2019-04-30T04:37:40.847Z,11.7
2019-04-30T04:38:31.441Z,11.7
2019-04-30T04:39:21.769Z,11.8
2019-04-30T04:40:10.946Z,11.9
2019-04-30T04:41:04.547Z,11.9
2019-04-30T04:41:51.925Z,12.1
2019-04-30T04:42:40.978Z,12.1
2019-04-30T04:43:31.328Z,12.2
2019-04-30T04:44:22.054Z,12.3
2019-04-30T04:45:11.709Z,12.4
2019-04-30T04:46:01.311Z,12.4
2019-04-30T04:46:52.170Z,12.5
2019-04-30T04:47:41.376Z,12.5
2019-04-30T04:48:31.509Z,12.6
2019-04-30T04:49:22.047Z,12.6
2019-04-30T04:50:12.111Z,12.6
2019-04-30T04:51:01.588Z,12.7
2019-04-30T04:51:51.713Z,12.8
2019-04-30T04:52:41.780Z,12.8
2019-04-30T04:53:31.836Z,12.8
2019-04-30T04:54:21.993Z,12.9
2019-04-30T04:55:11.950Z,12.9
2019-04-30T04:56:01.787Z,12.9
2019-04-30T04:57:23.070Z,13
2019-04-30T04:58:31.930Z,13.1
2019-04-30T04:59:22.264Z,13.3
2019-04-30T05:00:12.402Z,13.3
2019-04-30T05:01:02.117Z,13.3
2019-04-30T05:01:52.457Z,13.4
2019-04-30T05:02:42.519Z,13.4
2019-04-30T05:03:32.325Z,13.6
2019-04-30T05:04:22.691Z,13.6
2019-04-30T05:05:12.719Z,13.7
2019-04-30T05:06:04.003Z,13.8
2019-04-30T05:06:52.858Z,13.9
2019-04-30T05:07:42.604Z,13.9
2019-04-30T05:08:32.662Z,14.1
2019-04-30T05:09:22.725Z,14.2
2019-04-30T05:10:13.063Z,14.3
2019-04-30T05:11:03.162Z,14.4
2019-04-30T05:11:52.956Z,14.6
2019-04-30T05:12:42.994Z,14.7
2019-04-30T05:13:36.134Z,14.8
2019-04-30T05:14:23.098Z,15
2019-04-30T05:15:13.168Z,15.1
2019-04-30T05:16:02.974Z,15.3
2019-04-30T05:16:53.548Z,15.3
2019-04-30T05:17:43.081Z,15.4
2019-04-30T05:18:33.411Z,15.5
2019-04-30T05:19:23.761Z,15.6
2019-04-30T05:20:13.806Z,15.6
2019-04-30T05:21:03.868Z,15.6
2019-04-30T05:21:53.926Z,15.7
2019-04-30T05:22:43.715Z,15.8
2019-04-30T05:23:34.064Z,15.8
2019-04-30T05:24:23.558Z,15.9
2019-04-30T05:25:13.898Z,16.1
2019-04-30T05:26:03.963Z,16.2
2019-04-30T05:26:53.778Z,16.3
2019-04-30T05:27:44.360Z,16.5
2019-04-30T05:28:34.428Z,16.7
2019-04-30T05:29:24.220Z,16.9
2019-04-30T05:30:14.273Z,17.1
2019-04-30T05:31:04.332Z,17.3
2019-04-30T05:31:54.408Z,17.4
2019-04-30T05:32:44.740Z,17.6
2019-04-30T05:35:14.961Z,18.2
2019-04-30T05:36:04.977Z,18.4
2019-04-30T05:36:54.768Z,18.6
2019-04-30T05:37:44.835Z,18.8
2019-04-30T05:38:35.180Z,19
2019-04-30T05:39:25.235Z,19.2
2019-04-30T05:40:15.302Z,19.4
2019-04-30T05:41:05.359Z,19.3
2019-04-30T05:41:55.423Z,15.6
2019-04-30T05:42:44.927Z,19.3
2019-04-30T05:43:35.259Z,27.1
2019-04-30T05:44:25.603Z,29.3
2019-04-30T05:45:15.117Z,30.8
2019-04-30T05:46:05.724Z,31.8
2019-04-30T05:46:55.509Z,31.9
2019-04-30T05:47:45.853Z,31.9
2019-04-30T05:48:35.934Z,31.9
2019-04-30T05:49:25.169Z,31.7
2019-04-30T05:50:16.052Z,31.4
2019-04-30T05:51:06.101Z,31.3
2019-04-30T05:52:46.224Z,31.1
2019-04-30T05:53:36.019Z,31
2019-04-30T05:54:26.091Z,30.9
2019-04-30T05:55:15.893Z,30.9
2019-04-30T05:56:06.489Z,30.8
2019-04-30T05:56:56.546Z,30.7
2019-04-30T05:58:01.710Z,30.6
2019-04-30T05:59:28.781Z,30.5
2019-04-30T06:00:18.823Z,30.5
2019-04-30T06:01:06.850Z,30.4
2019-04-30T06:01:59.082Z,30.4
2019-04-30T06:02:46.971Z,30.8
2019-04-30T06:04:43.483Z,32
2019-04-30T06:05:33.808Z,32.2
2019-04-30T06:06:23.861Z,33.3
2019-04-30T06:07:13.920Z,34.1
2019-04-30T06:08:03.985Z,34.3
2019-04-30T06:09:08.019Z,34.1
2019-04-30T06:10:34.178Z,33.7
2019-04-30T06:11:23.680Z,33.7
2019-04-30T06:12:14.292Z,33.8
2019-04-30T06:13:54.425Z,34.1
2019-04-30T06:14:52.815Z,34.2
2019-04-30T06:15:34.560Z,34.3
2019-04-30T06:16:24.622Z,34.3
2019-04-30T06:17:14.680Z,34.4
2019-04-30T06:18:15.142Z,34.4
2019-04-30T06:18:54.785Z,34.4
2019-04-30T06:19:44.862Z,34.5
2019-04-30T06:20:34.907Z,34.6
2019-04-30T06:21:24.972Z,34.7
2019-04-30T06:22:14.762Z,34.8
2019-04-30T06:23:05.099Z,34.9
2019-04-30T06:23:55.154Z,34.9
2019-04-30T06:24:45.219Z,35.1
2019-04-30T06:26:12.949Z,35.1
2019-04-30T06:27:15.416Z,35.3
2019-04-30T06:28:05.482Z,35.4
2019-04-30T06:28:55.544Z,35.5
2019-04-30T06:29:45.319Z,35.6
2019-04-30T06:30:35.664Z,35.7
2019-04-30T06:31:43.226Z,35.8
2019-04-30T06:33:05.557Z,36
2019-04-30T06:33:55.621Z,36.1
2019-04-30T06:34:45.971Z,36.1
2019-04-30T06:35:35.764Z,36.2
2019-04-30T06:36:26.109Z,36.3
2019-04-30T06:37:16.168Z,36.4
2019-04-30T06:38:06.224Z,36.5
2019-04-30T06:39:46.351Z,36.8
2019-04-30T06:40:36.131Z,36.8
2019-04-30T06:42:16.551Z,36.9
2019-04-30T06:43:06.309Z,36.8
2019-04-30T06:43:58.633Z,36.8
2019-04-30T06:44:46.718Z,36.9
2019-04-30T06:45:38.631Z,36.9
2019-04-30T06:46:26.288Z,36.9
2019-04-30T06:47:18.762Z,36.9
2019-04-30T06:48:56.481Z,37
2019-04-30T06:49:48.765Z,37
2019-04-30T06:51:30.425Z,37
2019-04-30T06:52:24.553Z,37
2019-04-30T06:53:09.139Z,37
2019-04-30T06:53:59.155Z,37
2019-04-30T06:55:39.748Z,37.1
2019-04-30T06:57:19.367Z,37.1
2019-04-30T06:58:16.547Z,37.1
2019-04-30T06:58:59.518Z,37
2019-04-30T06:59:51.702Z,37.1
2019-04-30T07:00:40.513Z,37
2019-04-30T07:01:29.963Z,37
2019-04-30T07:02:20.123Z,37
2019-04-30T07:04:43.708Z,37
2019-04-30T07:05:33.768Z,37.1
2019-04-30T07:06:45.287Z,37.1
2019-04-30T07:07:36.234Z,37.1
2019-04-30T07:09:05.721Z,37.1
2019-04-30T07:10:02.249Z,37
2019-04-30T07:11:11.855Z,37
2019-04-30T07:12:34.470Z,36.9
2019-04-30T07:13:15.743Z,36.9
2019-04-30T07:14:06.088Z,36.9
2019-04-30T07:14:56.158Z,36.9
2019-04-30T07:15:46.217Z,37
2019-04-30T07:16:36.010Z,37.1
2019-04-30T07:17:26.068Z,37.1
2019-04-30T07:18:16.390Z,37.3
2019-04-30T07:19:06.180Z,37.4
2019-04-30T07:20:00.649Z,37.5
2019-04-30T07:20:48.483Z,37.6
2019-04-30T07:21:45.801Z,37.8
2019-04-30T07:24:42.338Z,38.1
2019-04-30T07:25:40.412Z,38.5
2019-04-30T07:26:45.000Z,38.4
2019-04-30T07:27:25.594Z,38.4
2019-04-30T07:28:55.030Z,38.3
2019-04-30T07:30:00.236Z,38.1
2019-04-30T07:31:15.066Z,38.1
2019-04-30T07:32:30.386Z,38
2019-04-30T07:33:22.262Z,38
2019-04-30T07:34:10.324Z,38
2019-04-30T07:35:00.605Z,38
2019-04-30T07:35:51.031Z,38.1
2019-04-30T07:37:23.988Z,38.1
2019-04-30T07:38:25.809Z,38.1
2019-04-30T07:39:16.130Z,38
2019-04-30T07:40:05.979Z,38
2019-04-30T07:40:56.246Z,38
2019-04-30T07:41:46.044Z,37.9
2019-04-30T07:42:46.071Z,37.9
2019-04-30T07:44:39.605Z,37.8
2019-04-30T07:46:11.513Z,37.7
2019-04-30T07:48:12.743Z,37.7
2019-04-30T07:49:03.078Z,37.7
2019-04-30T07:50:00.442Z,37.7
2019-04-30T07:50:44.899Z,37.6
2019-04-30T07:51:43.749Z,37.6
2019-04-30T07:52:27.042Z,37.6
2019-04-30T07:53:28.003Z,37.6
2019-04-30T07:54:19.271Z,37.6
2019-04-30T07:55:43.273Z,37.6
2019-04-30T07:56:42.627Z,37.6
2019-04-30T07:58:13.898Z,37.5
2019-04-30T07:59:04.478Z,37.5
2019-04-30T07:59:53.833Z,37.4
2019-04-30T08:00:43.918Z,37.4
2019-04-30T08:02:24.573Z,37.3
2019-04-30T08:03:15.226Z,37.3
2019-04-30T08:04:04.142Z,37.3
2019-04-30T08:04:53.933Z,37.2
2019-04-30T08:05:44.275Z,37.2
2019-04-30T08:06:34.683Z,37.1
2019-04-30T08:07:24.757Z,37.1
2019-04-30T08:08:26.874Z,37
2019-04-30T08:09:54.300Z,36.9
2019-04-30T08:10:44.404Z,36.9
2019-04-30T08:11:44.262Z,36.9
2019-04-30T08:12:43.791Z,36.9
2019-04-30T08:14:06.781Z,36.8
2019-04-30T08:14:54.678Z,36.8
2019-04-30T08:15:45.017Z,36.8
2019-04-30T08:16:34.787Z,36.8
2019-04-30T08:17:25.134Z,36.8
2019-04-30T08:19:04.987Z,36.7
2019-04-30T08:19:55.339Z,36.7
2019-04-30T08:21:35.451Z,36.7
2019-04-30T08:22:25.511Z,36.8
2019-04-30T08:23:40.164Z,36.8
2019-04-30T08:24:55.705Z,36.8
2019-04-30T08:26:35.535Z,36.9
2019-04-30T08:27:25.598Z,36.9
2019-04-30T08:28:31.491Z,37
2019-04-30T08:29:55.516Z,37
2019-04-30T08:30:45.861Z,37
2019-04-30T08:32:26.281Z,36.9
2019-04-30T08:34:06.399Z,36.9
2019-04-30T08:34:56.431Z,36.9
2019-04-30T08:35:46.486Z,36.8
2019-04-30T08:36:38.554Z,36.8
2019-04-30T08:37:28.643Z,36.8
2019-04-30T08:38:31.348Z,36.8
2019-04-30T08:39:56.821Z,36.7
2019-04-30T08:41:01.595Z,36.8
2019-04-30T08:42:40.926Z,36.8
2019-04-30T08:44:06.857Z,36.9
2019-04-30T08:44:58.384Z,36.9
2019-04-30T08:46:39.234Z,37.1
2019-04-30T08:47:29.553Z,37.2
2019-04-30T08:48:19.200Z,37.3
2019-04-30T08:49:10.878Z,37.4
2019-04-30T08:50:02.971Z,37.6
2019-04-30T08:50:50.702Z,37.8
2019-04-30T08:51:40.631Z,38.1
2019-04-30T08:52:27.777Z,38.7
2019-04-30T08:53:35.035Z,39.2
2019-04-30T08:55:16.714Z,39.9
2019-04-30T08:56:40.231Z,40.1
2019-04-30T08:57:29.892Z,40.1
2019-04-30T08:58:21.896Z,40.1
2019-04-30T08:59:22.899Z,40.1
2019-04-30T09:00:50.117Z,40.1
2019-04-30T09:01:40.239Z,40.1
2019-04-30T09:02:30.432Z,40.1
2019-04-30T09:03:20.426Z,40.1
2019-04-30T09:06:41.402Z,40.1
2019-04-30T09:07:30.739Z,40.1
2019-04-30T09:08:20.856Z,39.9
2019-04-30T09:09:12.181Z,39.8
2019-04-30T09:10:05.404Z,39.7
2019-04-30T09:10:50.654Z,39.4
2019-04-30T09:11:56.741Z,38.9
2019-04-30T09:13:20.714Z,38.8
2019-04-30T09:14:10.063Z,38.9
2019-04-30T09:15:00.348Z,38.8
2019-04-30T09:15:50.486Z,38.8
2019-04-30T09:16:40.952Z,38.8
2019-04-30T09:17:30.981Z,38.8
2019-04-30T09:18:20.635Z,38.6
2019-04-30T09:20:00.136Z,38.7
2019-04-30T09:20:51.071Z,38.9
2019-04-30T09:21:40.816Z,39.1
2019-04-30T09:22:30.845Z,39.2
2019-04-30T09:24:10.694Z,39.8
2019-04-30T09:25:00.708Z,40.3
2019-04-30T09:25:51.008Z,40.9
2019-04-30T09:26:40.715Z,41.4
2019-04-30T09:27:30.948Z,41.7
2019-04-30T09:28:36.075Z,41.8
2019-04-30T09:30:00.545Z,41.6
2019-04-30T09:31:42.467Z,41.7
2019-04-30T09:32:30.180Z,41.7
2019-04-30T09:33:20.482Z,41.6
2019-04-30T09:34:21.998Z,41.4
2019-04-30T09:35:50.849Z,41.1
2019-04-30T09:36:41.039Z,41
2019-04-30T09:37:31.873Z,40.9
2019-04-30T09:38:21.167Z,40.9
2019-04-30T09:39:11.229Z,40.9
2019-04-30T09:40:01.300Z,40.9
2019-04-30T09:40:52.007Z,40.8
2019-04-30T09:41:42.702Z,40.8
2019-04-30T09:42:31.467Z,40.7
2019-04-30T09:43:21.261Z,40.6
2019-04-30T09:44:11.599Z,40.5
2019-04-30T09:45:01.109Z,40.3
2019-04-30T09:45:51.181Z,40.2
2019-04-30T09:46:41.799Z,40.1
2019-04-30T09:47:31.837Z,40
2019-04-30T09:48:22.337Z,39.9
2019-04-30T09:49:11.714Z,39.9
2019-04-30T09:50:02.054Z,39.9
2019-04-30T09:50:53.671Z,39.9
2019-04-30T09:52:39.231Z,40.1
2019-04-30T09:53:23.167Z,40.3
2019-04-30T09:54:15.540Z,40.3
2019-04-30T09:55:04.230Z,40.4
2019-04-30T09:55:52.457Z,40.5
2019-04-30T09:56:42.527Z,40.6
2019-04-30T09:57:32.331Z,40.6
2019-04-30T09:59:12.724Z,40.8
2019-04-30T10:00:02.561Z,41.2
2019-04-30T10:00:52.558Z,41.6
2019-04-30T10:01:42.901Z,42.1
2019-04-30T10:02:32.726Z,42.6
2019-04-30T10:03:26.381Z,43.2
2019-04-30T10:05:43.592Z,44.2
2019-04-30T10:06:41.673Z,44.4
2019-04-30T10:07:23.698Z,44.2
2019-04-30T10:08:13.493Z,43.9
2019-04-30T10:09:03.558Z,43.5
2019-04-30T10:09:53.635Z,43.3
2019-04-30T10:10:43.675Z,43.4
2019-04-30T10:11:33.477Z,43.9
2019-04-30T10:12:24.088Z,44.6
2019-04-30T10:13:14.142Z,45.3
2019-04-30T10:14:03.645Z,45.8
2019-04-30T10:14:54.480Z,46.1
2019-04-30T10:15:44.332Z,46.3
2019-04-30T10:16:34.133Z,46.6
2019-04-30T10:17:24.188Z,46.8
2019-04-30T10:18:14.514Z,47
2019-04-30T10:19:04.307Z,47.3
2019-04-30T10:19:54.362Z,47.6
2019-04-30T10:20:44.692Z,47.8
2019-04-30T10:21:34.492Z,48.1
2019-04-30T10:22:24.540Z,48.4
2019-04-30T10:23:14.872Z,48.6
2019-04-30T10:24:17.167Z,48.7
2019-04-30T10:25:44.811Z,48.4
2019-04-30T10:26:35.127Z,48.3
2019-04-30T10:27:25.362Z,48
2019-04-30T10:28:15.040Z,47.8
2019-04-30T10:29:05.355Z,47.6
2019-04-30T10:29:55.396Z,47.4
2019-04-30T10:31:35.264Z,47.3
2019-04-30T10:32:25.556Z,47.1
2019-04-30T10:33:15.615Z,46.9
2019-04-30T10:34:05.692Z,46.8
2019-04-30T10:34:55.468Z,46.7
2019-04-30T10:35:45.803Z,46.6
2019-04-30T10:36:35.589Z,46.4
2019-04-30T10:37:25.936Z,46.4
2019-04-30T10:38:16.026Z,46.3
2019-04-30T10:39:05.853Z,46.1
2019-04-30T10:39:55.647Z,46.1
2019-04-30T10:40:46.899Z,46
2019-04-30T10:42:26.088Z,45.9
2019-04-30T10:43:16.369Z,45.8
2019-04-30T10:44:06.434Z,45.8
2019-04-30T10:44:59.853Z,45.7
2019-04-30T10:45:48.101Z,45.7
2019-04-30T10:46:36.360Z,45.6
2019-04-30T10:47:26.138Z,45.6
2019-04-30T10:48:16.461Z,45.7
2019-04-30T10:49:06.631Z,45.8
2019-04-30T10:49:58.412Z,45.9
2019-04-30T10:51:38.677Z,46.9
2019-04-30T10:52:26.778Z,47.6
2019-04-30T10:53:16.851Z,48.1
2019-04-30T10:54:09.303Z,48.4
2019-04-30T10:55:48.436Z,48.4
2019-04-30T10:56:37.353Z,48.5
2019-04-30T10:57:29.142Z,48.9
2019-04-30T10:58:17.508Z,49.3
2019-04-30T10:59:07.552Z,49.7
2019-04-30T10:59:59.335Z,49.9
2019-04-30T11:00:49.694Z,50.1
2019-04-30T11:01:39.627Z,50.3
2019-04-30T11:02:32.496Z,50.3
2019-04-30T11:04:07.953Z,50.3
2019-04-30T11:04:57.985Z,50.6
2019-04-30T11:05:49.808Z,50.9
2019-04-30T11:06:38.123Z,51.3
2019-04-30T11:07:30.029Z,51.6
2019-04-30T11:08:18.242Z,51.8
2019-04-30T11:09:59.970Z,52.1
2019-04-30T11:10:48.144Z,52.2
2019-04-30T11:12:30.622Z,52.1
2019-04-30T11:13:18.356Z,52
2019-04-30T11:14:58.494Z,52.1
2019-04-30T11:16:38.877Z,53
2019-04-30T11:17:34.698Z,53.4
2019-04-30T11:18:19.757Z,53.8
2019-04-30T11:19:11.405Z,54.1
2019-04-30T11:20:01.554Z,54.3
2019-04-30T11:20:52.013Z,54.3
2019-04-30T11:21:39.893Z,54.4
2019-04-30T11:22:29.940Z,54.4
2019-04-30T11:23:23.423Z,54.2
2019-04-30T11:24:11.338Z,54.2
2019-04-30T11:25:04.754Z,54.3
2019-04-30T11:25:54.486Z,54.7
2019-04-30T11:26:45.183Z,55.1
2019-04-30T11:27:34.356Z,55.4
2019-04-30T11:28:22.020Z,55.7
2019-04-30T11:29:10.765Z,55.8
2019-04-30T11:30:23.726Z,56
2019-04-30T11:31:40.959Z,56.3
2019-04-30T11:32:30.540Z,56.4
2019-04-30T11:33:21.145Z,56.6
2019-04-30T11:34:10.186Z,56.8
2019-04-30T11:34:59.693Z,56.9
2019-04-30T11:36:05.953Z,57.1
2019-04-30T11:37:30.156Z,57.4
2019-04-30T11:38:21.750Z,57.6
2019-04-30T11:39:10.545Z,57.6
2019-04-30T11:40:00.594Z,57.6
2019-04-30T11:40:50.678Z,57.6
2019-04-30T11:41:55.395Z,57.9
2019-04-30T11:42:33.475Z,58.1
2019-04-30T11:44:10.932Z,58.4
2019-04-30T11:45:00.985Z,58.5
2019-04-30T11:45:51.040Z,58.6
2019-04-30T11:46:40.622Z,58.8
2019-04-30T11:47:31.164Z,58.8
2019-04-30T11:48:20.952Z,58.9
2019-04-30T11:50:01.430Z,58.9
2019-04-30T11:51:41.485Z,59
2019-04-30T11:52:31.008Z,59.2
2019-04-30T11:53:31.457Z,59.3
2019-04-30T11:55:01.975Z,59.4
2019-04-30T11:55:51.259Z,59.4
2019-04-30T11:56:41.850Z,59.1
2019-04-30T11:57:31.693Z,59
2019-04-30T11:58:23.419Z,59.1
2019-04-30T11:59:11.775Z,59.3
2019-04-30T12:00:02.167Z,59.5
2019-04-30T12:00:52.166Z,59.8
2019-04-30T12:01:41.945Z,59.8
2019-04-30T12:02:32.033Z,59.9
2019-04-30T12:03:21.822Z,59.9
2019-04-30T12:05:43.249Z,60.1
2019-04-30T12:06:33.569Z,60.1
2019-04-30T12:07:23.631Z,60.3
2019-04-30T12:08:13.417Z,60.3
2019-04-30T12:09:03.746Z,60.3
2019-04-30T12:09:53.829Z,60.4
2019-04-30T12:10:43.598Z,60.4
2019-04-30T12:11:33.658Z,60.5
2019-04-30T12:12:24.000Z,60.6
2019-04-30T12:13:13.783Z,60.6
2019-04-30T12:14:54.191Z,60.6
2019-04-30T12:15:43.424Z,60.3
2019-04-30T12:16:35.275Z,58.9
2019-04-30T12:17:23.841Z,58.2
2019-04-30T12:19:04.498Z,57.6
2019-04-30T12:19:54.560Z,57.8
2019-04-30T12:20:44.351Z,58.2
2019-04-30T12:21:34.685Z,58.5
2019-04-30T12:22:24.750Z,58.8
2019-04-30T12:23:14.250Z,58.8
2019-04-30T12:24:04.875Z,58.6
2019-04-30T12:25:06.534Z,58.4
2019-04-30T12:26:34.805Z,57.7
2019-04-30T12:27:24.855Z,57.7
2019-04-30T12:28:15.189Z,57.9
2019-04-30T12:29:05.243Z,58.4
2019-04-30T12:29:55.310Z,58.8
2019-04-30T12:30:45.387Z,59
2019-04-30T12:31:35.452Z,59.1
2019-04-30T12:32:25.509Z,59.2
2019-04-30T12:33:15.292Z,59.2
2019-04-30T12:34:05.620Z,59.3
2019-04-30T12:34:55.692Z,59.2
2019-04-30T12:35:45.203Z,59.3
2019-04-30T12:36:35.814Z,59.4
2019-04-30T12:37:25.625Z,59.4
2019-04-30T12:38:15.937Z,59.4
2019-04-30T12:39:05.733Z,59.4
2019-04-30T12:39:56.059Z,59.4
2019-04-30T12:40:45.869Z,59.3
2019-04-30T12:41:35.924Z,59.3
2019-04-30T12:42:26.309Z,59.4
2019-04-30T12:43:16.327Z,59.6
2019-04-30T12:44:06.377Z,59.8
2019-04-30T12:44:56.459Z,59.9
2019-04-30T12:45:46.246Z,59.9
2019-04-30T12:46:38.553Z,59.9
2019-04-30T12:47:26.341Z,59.9
2019-04-30T12:48:18.526Z,60
2019-04-30T12:49:06.476Z,60
2019-04-30T12:49:56.817Z,60
2019-04-30T12:50:46.608Z,60.1
2019-04-30T12:51:50.893Z,60.1
2019-04-30T12:53:17.071Z,60.1
2019-04-30T12:54:07.126Z,60.2
2019-04-30T12:55:49.548Z,60.3
2019-04-30T12:56:37.044Z,60.3
2019-04-30T12:57:29.941Z,60.3
2019-04-30T12:58:20.482Z,60.3
2019-04-30T13:00:49.660Z,60.3
2019-04-30T13:01:39.754Z,60.3
2019-04-30T13:02:29.575Z,60.3
2019-04-30T13:03:17.535Z,60.4
2019-04-30T13:04:10.293Z,60.4
2019-04-30T13:05:01.635Z,60.4
2019-04-30T13:05:51.911Z,60.4
2019-04-30T13:06:40.195Z,60.4
2019-04-30T13:07:33.757Z,60.4
2019-04-30T13:08:23.441Z,60.4
2019-04-30T13:09:14.184Z,60.4
2019-04-30T13:10:03.981Z,60.4
2019-04-30T13:11:43.271Z,60.4
2019-04-30T13:12:30.912Z,60.4
2019-04-30T13:13:21.129Z,60.4
2019-04-30T13:14:13.598Z,60.4
2019-04-30T13:14:58.417Z,60.4
2019-04-30T13:15:48.468Z,60.4
2019-04-30T13:16:40.420Z,60.4
2019-04-30T13:17:28.599Z,60.4
2019-04-30T13:18:20.652Z,60.4
2019-04-30T13:19:10.837Z,60.4
2019-04-30T13:19:58.793Z,60.4
2019-04-30T13:20:50.859Z,60.3
2019-04-30T13:21:40.751Z,60.3
2019-04-30T13:23:19.837Z,60.3
2019-04-30T13:24:09.422Z,60.4
2019-04-30T13:25:01.521Z,60.3
2019-04-30T13:25:52.849Z,60.3
2019-04-30T13:26:40.681Z,60.3
2019-04-30T13:27:29.346Z,60.3
2019-04-30T13:28:19.133Z,60.3
2019-04-30T13:29:09.275Z,60.3
2019-04-30T13:30:50.684Z,60.3
2019-04-30T13:31:41.811Z,60.3
2019-04-30T13:32:33.866Z,60.3
2019-04-30T13:34:10.136Z,60.2
2019-04-30T13:35:01.791Z,60.2
2019-04-30T13:35:50.426Z,60.1
2019-04-30T13:36:42.274Z,60.1
2019-04-30T13:37:30.278Z,60.1
2019-04-30T13:38:20.426Z,60.1
2019-04-30T13:39:10.588Z,60
2019-04-30T13:40:00.281Z,60
2019-04-30T13:40:50.628Z,59.9
2019-04-30T13:41:46.080Z,59.9
2019-04-30T13:43:20.525Z,59.9
2019-04-30T13:44:11.226Z,59.8
2019-04-30T13:45:00.388Z,59.8
2019-04-30T13:46:41.153Z,59.8
2019-04-30T13:47:30.854Z,59.7
2019-04-30T13:48:21.232Z,59.7
2019-04-30T13:49:11.248Z,59.6
2019-04-30T13:50:01.309Z,59.6
2019-04-30T13:50:50.825Z,59.6
2019-04-30T13:51:43.682Z,59.5
2019-04-30T13:52:32.490Z,59.4
2019-04-30T13:53:21.561Z,59.4
2019-04-30T13:54:11.667Z,59.4
2019-04-30T13:55:01.194Z,59.3
2019-04-30T13:55:51.775Z,59.3
2019-04-30T13:56:41.807Z,59.3
2019-04-30T13:57:34.800Z,59.3
2019-04-30T13:58:21.970Z,59.2
2019-04-30T13:59:12.006Z,59.2
2019-04-30T14:00:01.790Z,59.1
2019-04-30T14:00:51.882Z,59.1
2019-04-30T14:01:41.919Z,59
2019-04-30T14:02:32.261Z,59
2019-04-30T14:03:22.137Z,58.9
2019-04-30T14:04:12.367Z,58.9
2019-04-30T14:09:00.174Z,58.6
2019-04-30T14:10:39.985Z,58.3
2019-04-30T14:11:28.286Z,58.2
2019-04-30T14:12:18.071Z,57.9
2019-04-30T14:13:58.184Z,57.6
2019-04-30T14:14:50.294Z,57.5
2019-04-30T14:16:32.776Z,57.1
2019-04-30T14:18:13.476Z,56.3
2019-04-30T14:19:03.531Z,55.8
2019-04-30T14:19:53.586Z,55.4
2019-04-30T14:20:43.414Z,54.9
2019-04-30T14:21:36.501Z,54.3
2019-04-30T14:22:23.508Z,53.8
2019-04-30T14:23:13.846Z,53.3
2019-04-30T14:24:03.903Z,52.7
2019-04-30T14:24:53.696Z,52.1
2019-04-30T14:26:00.719Z,51.6
2019-04-30T14:27:23.933Z,50.6
2019-04-30T14:28:14.217Z,50.2
2019-04-30T14:29:04.272Z,49.7
2019-04-30T14:29:54.328Z,49.3
2019-04-30T14:30:44.416Z,48.8
2019-04-30T14:31:34.463Z,48.4
2019-04-30T14:32:24.538Z,47.9
2019-04-30T14:33:29.550Z,47.5
2019-04-30T14:34:54.432Z,46.7
2019-04-30T14:35:44.209Z,46.3
2019-04-30T14:36:34.550Z,45.9
2019-04-30T14:38:14.676Z,45.1
2019-04-30T14:39:17.702Z,44.8
2019-04-30T14:40:47.414Z,44.1
2019-04-30T14:41:41.326Z,43.7
2019-04-30T14:42:29.400Z,43.3
2019-04-30T14:43:19.974Z,43
2019-04-30T14:44:07.734Z,42.7
2019-04-30T14:44:59.240Z,42.4
2019-04-30T14:47:32.307Z,41.4
2019-04-30T14:48:23.417Z,41.1
2019-04-30T14:49:15.547Z,40.8
2019-04-30T14:50:06.299Z,40.4
2019-04-30T14:52:25.744Z,39.7
2019-04-30T14:53:15.814Z,39.4
2019-04-30T14:54:06.160Z,39.2
2019-04-30T14:54:55.934Z,38.9
2019-04-30T14:55:46.337Z,38.7
2019-04-30T14:57:26.412Z,38.2
2019-04-30T14:59:06.519Z,37.8
2019-04-30T14:59:56.304Z,37.6
2019-04-30T15:02:10.029Z,37
2019-04-30T15:04:25.676Z,36.6
2019-04-30T15:05:15.757Z,36.5
2019-04-30T15:08:36.033Z,35.8
2019-04-30T15:09:26.330Z,35.7
2019-04-30T15:10:30.785Z,35.5
2019-04-30T15:11:39.782Z,35.2
2019-04-30T15:13:53.990Z,34.9
2019-04-30T15:14:44.041Z,34.7
2019-04-30T15:15:33.825Z,34.6
2019-04-30T15:17:14.373Z,34.2
2019-04-30T15:18:19.730Z,34
2019-04-30T15:19:44.417Z,33.8
2019-04-30T15:20:49.727Z,33.6
2019-04-30T15:22:14.339Z,33.3
2019-04-30T15:23:04.678Z,33.1
2019-04-30T15:24:02.688Z,33
2019-04-30T15:25:36.192Z,32.7
2019-04-30T15:26:28.576Z,32.6
2019-04-30T15:28:59.968Z,32.1
2019-04-30T15:29:44.867Z,32
2019-04-30T15:30:34.934Z,31.8
2019-04-30T15:32:35.497Z,31.5
2019-04-30T15:33:25.574Z,31.4
2019-04-30T15:34:15.627Z,31.3
2019-04-30T15:35:05.414Z,31.1
2019-04-30T15:36:25.429Z,30.9
2019-04-30T15:37:35.597Z,30.8
2019-04-30T15:38:25.707Z,30.6
2019-04-30T15:43:59.958Z,29.9
2019-04-30T15:47:20.557Z,29.5
2019-04-30T15:48:25.018Z,29.4
2019-04-30T15:49:50.406Z,29.1
2019-04-30T15:50:40.774Z,29
2019-04-30T15:53:25.311Z,28.7
2019-04-30T15:55:40.556Z,28.4
2019-04-30T15:56:44.353Z,28.3
2019-04-30T16:00:40.661Z,27.7
2019-04-30T16:02:21.065Z,27.4
2019-04-30T16:06:43.471Z,26.8
2019-04-30T16:10:21.489Z,26.4
2019-04-30T16:12:28.500Z,26.1
2019-04-30T16:14:46.602Z,25.7
2019-04-30T16:15:38.060Z,25.6
2019-04-30T16:16:41.088Z,25.5
2019-04-30T16:17:31.476Z,25.3
2019-04-30T16:20:37.022Z,24.9
2019-04-30T16:22:31.527Z,24.6
2019-04-30T16:24:47.403Z,24.3
2019-04-30T16:25:51.784Z,24.2
2019-04-30T16:26:49.406Z,23.9
2019-04-30T16:27:35.420Z,23.9
2019-04-30T16:30:43.056Z,23.4
2019-04-30T16:32:42.427Z,23.1
2019-04-30T16:33:32.086Z,22.9
2019-04-30T16:34:22.321Z,22.9
2019-04-30T16:39:43.808Z,22.2
2019-04-30T16:42:24.788Z,21.9
2019-04-30T16:47:36.091Z,21.3
2019-04-30T16:50:06.225Z,20.9
2019-04-30T16:51:35.438Z,20.8
2019-04-30T16:52:41.727Z,20.7
2019-04-30T16:54:52.017Z,20.4
2019-04-30T17:00:44.221Z,19.9
2019-04-30T17:02:54.750Z,19.7